HETB/TCP METAR and TAF weather

Enter ICAO airport designator
Station Type Date Time Source
HETB METAR 2021/12/21 22:00 UTC NOAA

HETB 212200Z 18006KT 9999 SCT020 SCT022 11/07 Q1023 NOSIG


Station Type Date Time Source
HETB Decoded METAR 2021/12/21 22:00 UTC NOAA

Taba, Egypt (HETB) 29-35-57N 034-46-36E
Dec 21, 2021 - 05:00 PM EST / 2021.12.21 2200 UTC
Wind: from the S (180 degrees) at 7 MPH (6 KT):0
Visibility: greater than 7 mile(s):0
Sky conditions: partly cloudy
Temperature: 51 F (11 C)
Dew Point: 44 F (7 C)
Relative Humidity: 76%
Pressure (altimeter): 30.21 in. Hg (1023 hPa)
ob: HETB 212200Z 18006KT 9999 SCT020 SCT022 11/07 Q1023 NOSIG
cycle: 22

Station Type Date Time Source
HETB TAF 2022/01/26 06:30 UTC NOAA

TAF HETB 260500Z 2606/2712 22015KT 9999 SCT025
TEMPO 2615/2621 6000 RA BKN025

Example: see airport list